sensor_id;sensor_type;location;lat;lon;timestamp;P1;durP1;ratioP1;P2;durP2;ratioP2
78778;SDS011;68121;52.404;5.318;2023-03-23T00:01:06;6.72;;;3.05;;
78778;SDS011;68121;52.404;5.318;2023-03-23T00:03:39;5.05;;;3.33;;
78778;SDS011;68121;52.404;5.318;2023-03-23T00:06:06;4.72;;;3.10;;
78778;SDS011;68121;52.404;5.318;2023-03-23T00:08:34;3.47;;;2.47;;
78778;SDS011;68121;52.404;5.318;2023-03-23T00:11:17;4.32;;;3.42;;
78778;SDS011;68121;52.404;5.318;2023-03-23T00:13:46;6.72;;;3.42;;
78778;SDS011;68121;52.404;5.318;2023-03-23T00:16:17;6.18;;;3.08;;
78778;SDS011;68121;52.404;5.318;2023-03-23T00:18:45;5.22;;;2.28;;
78778;SDS011;68121;52.404;5.318;2023-03-23T00:21:11;5.63;;;3.03;;
78778;SDS011;68121;52.404;5.318;2023-03-23T00:23:37;6.43;;;3.00;;
78778;SDS011;68121;52.404;5.318;2023-03-23T00:26:04;6.53;;;2.75;;
78778;SDS011;68121;52.404;5.318;2023-03-23T00:28:31;7.28;;;2.28;;
78778;SDS011;68121;52.404;5.318;2023-03-23T00:31:02;6.18;;;2.70;;
78778;SDS011;68121;52.404;5.318;2023-03-23T00:33:32;10.07;;;3.35;;
78778;SDS011;68121;52.404;5.318;2023-03-23T00:36:07;6.90;;;2.50;;
78778;SDS011;68121;52.404;5.318;2023-03-23T00:38:34;6.57;;;2.78;;
78778;SDS011;68121;52.404;5.318;2023-03-23T00:41:01;7.07;;;2.63;;
78778;SDS011;68121;52.404;5.318;2023-03-23T00:43:30;4.38;;;2.35;;
78778;SDS011;68121;52.404;5.318;2023-03-23T00:45:57;4.93;;;2.10;;
78778;SDS011;68121;52.404;5.318;2023-03-23T00:48:27;4.80;;;2.40;;
78778;SDS011;68121;52.404;5.318;2023-03-23T00:50:54;5.18;;;2.63;;
78778;SDS011;68121;52.404;5.318;2023-03-23T00:53:21;3.55;;;1.90;;
78778;SDS011;68121;52.404;5.318;2023-03-23T00:55:48;4.75;;;2.33;;
78778;SDS011;68121;52.404;5.318;2023-03-23T00:58:15;5.20;;;2.80;;
78778;SDS011;68121;52.404;5.318;2023-03-23T01:00:41;4.13;;;2.13;;
78778;SDS011;68121;52.404;5.318;2023-03-23T01:03:08;7.00;;;2.22;;
78778;SDS011;68121;52.404;5.318;2023-03-23T01:05:44;4.78;;;2.72;;
78778;SDS011;68121;52.404;5.318;2023-03-23T01:08:12;3.75;;;1.83;;
78778;SDS011;68121;52.404;5.318;2023-03-23T01:10:39;3.80;;;1.95;;
78778;SDS011;68121;52.404;5.318;2023-03-23T01:13:06;5.85;;;2.15;;
78778;SDS011;68121;52.404;5.318;2023-03-23T01:15:33;5.63;;;2.22;;
78778;SDS011;68121;52.404;5.318;2023-03-23T01:18:01;6.10;;;2.35;;
78778;SDS011;68121;52.404;5.318;2023-03-23T01:20:27;4.57;;;2.08;;
78778;SDS011;68121;52.404;5.318;2023-03-23T01:22:57;4.70;;;2.00;;
78778;SDS011;68121;52.404;5.318;2023-03-23T01:25:29;3.15;;;2.08;;
78778;SDS011;68121;52.404;5.318;2023-03-23T01:27:57;3.10;;;1.85;;
78778;SDS011;68121;52.404;5.318;2023-03-23T01:30:24;4.30;;;1.65;;
78778;SDS011;68121;52.404;5.318;2023-03-23T01:32:50;2.53;;;1.80;;
78778;SDS011;68121;52.404;5.318;2023-03-23T01:35:17;5.45;;;2.08;;
78778;SDS011;68121;52.404;5.318;2023-03-23T01:37:43;4.32;;;1.77;;
78778;SDS011;68121;52.404;5.318;2023-03-23T01:40:10;4.78;;;1.85;;
78778;SDS011;68121;52.404;5.318;2023-03-23T01:42:37;5.35;;;2.50;;
78778;SDS011;68121;52.404;5.318;2023-03-23T01:47:49;3.33;;;1.52;;
78778;SDS011;68121;52.404;5.318;2023-03-23T01:50:26;2.30;;;1.35;;
78778;SDS011;68121;52.404;5.318;2023-03-23T01:52:55;4.35;;;1.80;;
78778;SDS011;68121;52.404;5.318;2023-03-23T01:55:23;4.45;;;1.88;;
78778;SDS011;68121;52.404;5.318;2023-03-23T01:57:53;3.00;;;1.70;;
78778;SDS011;68121;52.404;5.318;2023-03-23T02:00:20;5.75;;;1.77;;
78778;SDS011;68121;52.404;5.318;2023-03-23T02:02:48;4.28;;;2.00;;
78778;SDS011;68121;52.404;5.318;2023-03-23T02:05:20;3.63;;;1.90;;
78778;SDS011;68121;52.404;5.318;2023-03-23T02:08:08;6.50;;;2.25;;
78778;SDS011;68121;52.404;5.318;2023-03-23T02:10:36;3.17;;;1.23;;
78778;SDS011;68121;52.404;5.318;2023-03-23T02:13:03;5.07;;;1.83;;
78778;SDS011;68121;52.404;5.318;2023-03-23T02:15:37;4.38;;;2.03;;
78778;SDS011;68121;52.404;5.318;2023-03-23T02:18:25;7.65;;;1.60;;
78778;SDS011;68121;52.404;5.318;2023-03-23T02:21:16;4.07;;;2.10;;
78778;SDS011;68121;52.404;5.318;2023-03-23T02:27:01;3.50;;;1.52;;
78778;SDS011;68121;52.404;5.318;2023-03-23T02:32:12;4.80;;;1.70;;
78778;SDS011;68121;52.404;5.318;2023-03-23T02:34:44;4.53;;;1.75;;
78778;SDS011;68121;52.404;5.318;2023-03-23T02:37:28;2.45;;;1.42;;
78778;SDS011;68121;52.404;5.318;2023-03-23T02:39:59;6.78;;;1.95;;
78778;SDS011;68121;52.404;5.318;2023-03-23T02:42:39;3.13;;;1.38;;
78778;SDS011;68121;52.404;5.318;2023-03-23T02:45:08;3.28;;;1.75;;
78778;SDS011;68121;52.404;5.318;2023-03-23T02:47:37;3.53;;;1.58;;
78778;SDS011;68121;52.404;5.318;2023-03-23T02:50:05;4.70;;;1.42;;
78778;SDS011;68121;52.404;5.318;2023-03-23T02:52:36;2.78;;;1.45;;
78778;SDS011;68121;52.404;5.318;2023-03-23T02:55:04;3.60;;;1.38;;
78778;SDS011;68121;52.404;5.318;2023-03-23T02:57:31;5.38;;;1.60;;
78778;SDS011;68121;52.404;5.318;2023-03-23T02:59:57;3.13;;;1.60;;
78778;SDS011;68121;52.404;5.318;2023-03-23T03:02:27;2.33;;;1.30;;
78778;SDS011;68121;52.404;5.318;2023-03-23T03:05:03;2.00;;;1.42;;
78778;SDS011;68121;52.404;5.318;2023-03-23T03:18:28;3.00;;;1.33;;
78778;SDS011;68121;52.404;5.318;2023-03-23T03:21:03;6.55;;;1.77;;
78778;SDS011;68121;52.404;5.318;2023-03-23T03:23:33;3.88;;;1.48;;
78778;SDS011;68121;52.404;5.318;2023-03-23T03:26:02;3.85;;;1.48;;
78778;SDS011;68121;52.404;5.318;2023-03-23T03:28:30;5.97;;;1.65;;
78778;SDS011;68121;52.404;5.318;2023-03-23T03:30:58;4.50;;;1.50;;
78778;SDS011;68121;52.404;5.318;2023-03-23T03:33:28;4.15;;;1.23;;
78778;SDS011;68121;52.404;5.318;2023-03-23T03:35:57;6.38;;;1.55;;
78778;SDS011;68121;52.404;5.318;2023-03-23T03:38:26;2.25;;;0.90;;
78778;SDS011;68121;52.404;5.318;2023-03-23T03:40:53;2.60;;;1.10;;
78778;SDS011;68121;52.404;5.318;2023-03-23T03:43:20;4.28;;;1.52;;
78778;SDS011;68121;52.404;5.318;2023-03-23T03:45:46;3.55;;;1.30;;
78778;SDS011;68121;52.404;5.318;2023-03-23T03:48:12;4.70;;;1.52;;
78778;SDS011;68121;52.404;5.318;2023-03-23T03:50:39;4.47;;;1.13;;
78778;SDS011;68121;52.404;5.318;2023-03-23T03:53:05;3.92;;;1.30;;
78778;SDS011;68121;52.404;5.318;2023-03-23T03:55:32;2.88;;;1.20;;
78778;SDS011;68121;52.404;5.318;2023-03-23T03:58:01;2.33;;;1.17;;
78778;SDS011;68121;52.404;5.318;2023-03-23T04:00:29;4.68;;;1.70;;
78778;SDS011;68121;52.404;5.318;2023-03-23T04:02:56;6.28;;;1.80;;
78778;SDS011;68121;52.404;5.318;2023-03-23T04:05:25;5.80;;;1.63;;
78778;SDS011;68121;52.404;5.318;2023-03-23T04:07:54;4.30;;;1.48;;
78778;SDS011;68121;52.404;5.318;2023-03-23T04:10:26;4.03;;;1.58;;
78778;SDS011;68121;52.404;5.318;2023-03-23T04:12:54;3.78;;;2.00;;
78778;SDS011;68121;52.404;5.318;2023-03-23T04:15:21;4.40;;;1.60;;
78778;SDS011;68121;52.404;5.318;2023-03-23T04:17:47;5.20;;;1.20;;
78778;SDS011;68121;52.404;5.318;2023-03-23T04:20:14;5.03;;;1.73;;
78778;SDS011;68121;52.404;5.318;2023-03-23T04:22:43;4.85;;;1.30;;
78778;SDS011;68121;52.404;5.318;2023-03-23T04:25:15;2.38;;;1.30;;
78778;SDS011;68121;52.404;5.318;2023-03-23T04:30:21;4.88;;;1.33;;
78778;SDS011;68121;52.404;5.318;2023-03-23T04:32:49;3.38;;;1.20;;
78778;SDS011;68121;52.404;5.318;2023-03-23T04:35:18;2.55;;;1.15;;
78778;SDS011;68121;52.404;5.318;2023-03-23T04:37:45;2.58;;;1.17;;
78778;SDS011;68121;52.404;5.318;2023-03-23T04:40:12;2.35;;;1.50;;
78778;SDS011;68121;52.404;5.318;2023-03-23T04:42:40;3.85;;;1.45;;
78778;SDS011;68121;52.404;5.318;2023-03-23T04:45:11;4.47;;;1.20;;
78778;SDS011;68121;52.404;5.318;2023-03-23T04:47:40;2.75;;;1.23;;
78778;SDS011;68121;52.404;5.318;2023-03-23T04:50:10;3.88;;;1.23;;
78778;SDS011;68121;52.404;5.318;2023-03-23T04:52:38;3.17;;;1.48;;
78778;SDS011;68121;52.404;5.318;2023-03-23T04:55:06;3.75;;;1.95;;
78778;SDS011;68121;52.404;5.318;2023-03-23T04:57:33;4.13;;;1.67;;
78778;SDS011;68121;52.404;5.318;2023-03-23T05:00:01;4.75;;;2.25;;
78778;SDS011;68121;52.404;5.318;2023-03-23T05:02:35;3.25;;;1.65;;
78778;SDS011;68121;52.404;5.318;2023-03-23T05:05:02;3.92;;;1.30;;
78778;SDS011;68121;52.404;5.318;2023-03-23T05:07:28;6.90;;;1.73;;
78778;SDS011;68121;52.404;5.318;2023-03-23T05:09:54;10.38;;;1.60;;
78778;SDS011;68121;52.404;5.318;2023-03-23T05:12:20;5.20;;;1.70;;
78778;SDS011;68121;52.404;5.318;2023-03-23T05:14:46;10.98;;;2.13;;
78778;SDS011;68121;52.404;5.318;2023-03-23T05:17:12;5.97;;;1.42;;
78778;SDS011;68121;52.404;5.318;2023-03-23T05:19:42;2.85;;;1.50;;
78778;SDS011;68121;52.404;5.318;2023-03-23T05:22:16;5.50;;;1.42;;
78778;SDS011;68121;52.404;5.318;2023-03-23T05:24:42;3.97;;;1.73;;
78778;SDS011;68121;52.404;5.318;2023-03-23T05:27:11;7.22;;;1.45;;
78778;SDS011;68121;52.404;5.318;2023-03-23T05:29:37;5.65;;;1.60;;
78778;SDS011;68121;52.404;5.318;2023-03-23T05:32:06;8.23;;;1.90;;
78778;SDS011;68121;52.404;5.318;2023-03-23T05:34:33;6.05;;;1.65;;
78778;SDS011;68121;52.404;5.318;2023-03-23T05:37:00;7.53;;;2.30;;
78778;SDS011;68121;52.404;5.318;2023-03-23T05:39:28;10.40;;;2.25;;
78778;SDS011;68121;52.404;5.318;2023-03-23T05:41:56;6.20;;;2.20;;
78778;SDS011;68121;52.404;5.318;2023-03-23T05:44:22;9.52;;;2.00;;
78778;SDS011;68121;52.404;5.318;2023-03-23T05:46:48;7.00;;;1.77;;
78778;SDS011;68121;52.404;5.318;2023-03-23T05:49:15;9.88;;;2.10;;
78778;SDS011;68121;52.404;5.318;2023-03-23T05:51:42;7.50;;;1.85;;
78778;SDS011;68121;52.404;5.318;2023-03-23T05:54:09;6.88;;;1.95;;
78778;SDS011;68121;52.404;5.318;2023-03-23T05:56:36;8.13;;;1.75;;
78778;SDS011;68121;52.404;5.318;2023-03-23T05:59:04;8.38;;;1.75;;
78778;SDS011;68121;52.404;5.318;2023-03-23T06:01:30;15.95;;;2.08;;
78778;SDS011;68121;52.404;5.318;2023-03-23T06:03:57;7.78;;;1.77;;
78778;SDS011;68121;52.404;5.318;2023-03-23T06:06:26;7.03;;;1.60;;
78778;SDS011;68121;52.404;5.318;2023-03-23T06:08:52;6.13;;;2.00;;
78778;SDS011;68121;52.404;5.318;2023-03-23T06:11:18;8.85;;;1.83;;
78778;SDS011;68121;52.404;5.318;2023-03-23T06:13:45;6.32;;;1.60;;
78778;SDS011;68121;52.404;5.318;2023-03-23T06:16:11;7.80;;;1.80;;
78778;SDS011;68121;52.404;5.318;2023-03-23T06:18:37;12.93;;;2.65;;
78778;SDS011;68121;52.404;5.318;2023-03-23T06:21:06;7.95;;;1.55;;
78778;SDS011;68121;52.404;5.318;2023-03-23T06:23:33;6.95;;;1.50;;
78778;SDS011;68121;52.404;5.318;2023-03-23T06:26:01;5.03;;;1.48;;
78778;SDS011;68121;52.404;5.318;2023-03-23T06:28:31;11.02;;;2.10;;
78778;SDS011;68121;52.404;5.318;2023-03-23T06:31:01;7.05;;;1.35;;
78778;SDS011;68121;52.404;5.318;2023-03-23T06:33:30;11.48;;;2.45;;
78778;SDS011;68121;52.404;5.318;2023-03-23T06:35:56;10.13;;;1.95;;
78778;SDS011;68121;52.404;5.318;2023-03-23T06:38:23;6.43;;;1.45;;
78778;SDS011;68121;52.404;5.318;2023-03-23T06:40:53;8.65;;;2.20;;
78778;SDS011;68121;52.404;5.318;2023-03-23T06:43:20;15.73;;;2.17;;
78778;SDS011;68121;52.404;5.318;2023-03-23T06:45:46;14.70;;;2.50;;
78778;SDS011;68121;52.404;5.318;2023-03-23T06:48:13;12.02;;;1.80;;
78778;SDS011;68121;52.404;5.318;2023-03-23T06:50:42;14.13;;;2.30;;
78778;SDS011;68121;52.404;5.318;2023-03-23T06:53:10;9.07;;;2.10;;
78778;SDS011;68121;52.404;5.318;2023-03-23T06:55:36;11.07;;;2.10;;
78778;SDS011;68121;52.404;5.318;2023-03-23T06:58:04;11.90;;;2.55;;
78778;SDS011;68121;52.404;5.318;2023-03-23T07:00:32;11.80;;;3.05;;
78778;SDS011;68121;52.404;5.318;2023-03-23T07:02:58;13.55;;;2.47;;
78778;SDS011;68121;52.404;5.318;2023-03-23T07:05:25;13.75;;;3.20;;
78778;SDS011;68121;52.404;5.318;2023-03-23T07:07:51;13.55;;;2.45;;
78778;SDS011;68121;52.404;5.318;2023-03-23T07:10:17;12.10;;;2.80;;
78778;SDS011;68121;52.404;5.318;2023-03-23T07:12:43;15.65;;;3.60;;
78778;SDS011;68121;52.404;5.318;2023-03-23T07:15:10;15.15;;;3.00;;
78778;SDS011;68121;52.404;5.318;2023-03-23T07:17:36;13.38;;;2.92;;
78778;SDS011;68121;52.404;5.318;2023-03-23T07:20:03;10.05;;;1.88;;
78778;SDS011;68121;52.404;5.318;2023-03-23T07:22:30;16.85;;;3.20;;
78778;SDS011;68121;52.404;5.318;2023-03-23T07:24:56;12.55;;;2.42;;
78778;SDS011;68121;52.404;5.318;2023-03-23T07:27:22;18.50;;;3.35;;
78778;SDS011;68121;52.404;5.318;2023-03-23T07:29:49;8.88;;;2.30;;
78778;SDS011;68121;52.404;5.318;2023-03-23T07:32:15;14.68;;;4.07;;
78778;SDS011;68121;52.404;5.318;2023-03-23T07:34:42;14.70;;;3.20;;
78778;SDS011;68121;52.404;5.318;2023-03-23T07:37:08;14.13;;;2.70;;
78778;SDS011;68121;52.404;5.318;2023-03-23T07:39:35;14.32;;;3.72;;
78778;SDS011;68121;52.404;5.318;2023-03-23T07:42:01;18.90;;;3.65;;
78778;SDS011;68121;52.404;5.318;2023-03-23T07:44:27;9.32;;;2.42;;
78778;SDS011;68121;52.404;5.318;2023-03-23T07:46:53;13.80;;;2.88;;
78778;SDS011;68121;52.404;5.318;2023-03-23T07:49:19;15.07;;;2.35;;
78778;SDS011;68121;52.404;5.318;2023-03-23T07:51:46;14.73;;;2.20;;
78778;SDS011;68121;52.404;5.318;2023-03-23T07:54:12;10.27;;;2.05;;
78778;SDS011;68121;52.404;5.318;2023-03-23T07:56:40;9.77;;;2.53;;
78778;SDS011;68121;52.404;5.318;2023-03-23T07:59:06;9.82;;;1.85;;
78778;SDS011;68121;52.404;5.318;2023-03-23T08:01:33;12.25;;;1.90;;
78778;SDS011;68121;52.404;5.318;2023-03-23T08:03:59;11.10;;;2.10;;
78778;SDS011;68121;52.404;5.318;2023-03-23T08:06:26;9.00;;;2.22;;
78778;SDS011;68121;52.404;5.318;2023-03-23T08:08:52;9.55;;;2.40;;
78778;SDS011;68121;52.404;5.318;2023-03-23T08:11:19;14.02;;;1.83;;
78778;SDS011;68121;52.404;5.318;2023-03-23T08:13:46;12.65;;;2.25;;
78778;SDS011;68121;52.404;5.318;2023-03-23T08:16:12;21.20;;;2.92;;
78778;SDS011;68121;52.404;5.318;2023-03-23T08:18:39;12.85;;;2.13;;
78778;SDS011;68121;52.404;5.318;2023-03-23T08:21:05;10.98;;;2.08;;
78778;SDS011;68121;52.404;5.318;2023-03-23T08:23:35;7.82;;;2.25;;
78778;SDS011;68121;52.404;5.318;2023-03-23T08:26:05;10.68;;;2.53;;
78778;SDS011;68121;52.404;5.318;2023-03-23T08:28:33;12.48;;;1.60;;
78778;SDS011;68121;52.404;5.318;2023-03-23T08:31:00;10.30;;;1.63;;
78778;SDS011;68121;52.404;5.318;2023-03-23T08:33:32;8.32;;;2.78;;
78778;SDS011;68121;52.404;5.318;2023-03-23T08:35:59;7.30;;;2.15;;
78778;SDS011;68121;52.404;5.318;2023-03-23T08:38:26;7.57;;;1.90;;
78778;SDS011;68121;52.404;5.318;2023-03-23T08:41:00;6.65;;;1.30;;
78778;SDS011;68121;52.404;5.318;2023-03-23T08:43:28;8.52;;;1.65;;
78778;SDS011;68121;52.404;5.318;2023-03-23T08:45:54;11.20;;;1.95;;
78778;SDS011;68121;52.404;5.318;2023-03-23T08:48:20;13.98;;;2.65;;
78778;SDS011;68121;52.404;5.318;2023-03-23T08:50:48;8.60;;;2.13;;
78778;SDS011;68121;52.404;5.318;2023-03-23T08:53:15;6.82;;;1.67;;
78778;SDS011;68121;52.404;5.318;2023-03-23T08:55:41;4.97;;;1.33;;
78778;SDS011;68121;52.404;5.318;2023-03-23T08:58:08;6.47;;;2.10;;
78778;SDS011;68121;52.404;5.318;2023-03-23T09:00:35;11.45;;;2.78;;
78778;SDS011;68121;52.404;5.318;2023-03-23T09:03:01;7.05;;;2.40;;
78778;SDS011;68121;52.404;5.318;2023-03-23T09:05:28;6.05;;;1.65;;
78778;SDS011;68121;52.404;5.318;2023-03-23T09:07:56;5.90;;;1.83;;
78778;SDS011;68121;52.404;5.318;2023-03-23T09:10:25;6.43;;;1.88;;
78778;SDS011;68121;52.404;5.318;2023-03-23T09:12:53;6.07;;;1.48;;
78778;SDS011;68121;52.404;5.318;2023-03-23T09:15:20;7.40;;;1.77;;
78778;SDS011;68121;52.404;5.318;2023-03-23T09:17:50;9.55;;;1.58;;
78778;SDS011;68121;52.404;5.318;2023-03-23T09:20:19;9.93;;;1.90;;
78778;SDS011;68121;52.404;5.318;2023-03-23T09:22:49;7.22;;;2.00;;
78778;SDS011;68121;52.404;5.318;2023-03-23T09:25:17;5.72;;;1.92;;
78778;SDS011;68121;52.404;5.318;2023-03-23T09:27:50;9.70;;;1.75;;
78778;SDS011;68121;52.404;5.318;2023-03-23T09:30:19;7.38;;;1.55;;
78778;SDS011;68121;52.404;5.318;2023-03-23T09:32:46;12.20;;;2.90;;
78778;SDS011;68121;52.404;5.318;2023-03-23T09:35:14;6.50;;;1.70;;
78778;SDS011;68121;52.404;5.318;2023-03-23T09:37:42;9.10;;;1.90;;
78778;SDS011;68121;52.404;5.318;2023-03-23T09:40:11;9.35;;;2.17;;
78778;SDS011;68121;52.404;5.318;2023-03-23T09:42:51;12.18;;;2.10;;
78778;SDS011;68121;52.404;5.318;2023-03-23T09:48:41;9.10;;;2.92;;
78778;SDS011;68121;52.404;5.318;2023-03-23T09:54:17;9.30;;;2.10;;
78778;SDS011;68121;52.404;5.318;2023-03-23T09:56:50;7.18;;;2.10;;
78778;SDS011;68121;52.404;5.318;2023-03-23T09:59:23;12.05;;;3.28;;
78778;SDS011;68121;52.404;5.318;2023-03-23T10:02:18;9.30;;;2.13;;
78778;SDS011;68121;52.404;5.318;2023-03-23T10:04:51;9.60;;;2.00;;
78778;SDS011;68121;52.404;5.318;2023-03-23T10:07:24;7.93;;;1.65;;
78778;SDS011;68121;52.404;5.318;2023-03-23T10:09:53;7.97;;;1.23;;
78778;SDS011;68121;52.404;5.318;2023-03-23T10:15:27;8.93;;;1.73;;
78778;SDS011;68121;52.404;5.318;2023-03-23T10:18:00;15.93;;;1.92;;
78778;SDS011;68121;52.404;5.318;2023-03-23T10:21:02;6.93;;;1.60;;
78778;SDS011;68121;52.404;5.318;2023-03-23T10:23:41;10.10;;;1.70;;
78778;SDS011;68121;52.404;5.318;2023-03-23T10:26:22;5.05;;;1.70;;
78778;SDS011;68121;52.404;5.318;2023-03-23T10:32:03;9.95;;;2.30;;
78778;SDS011;68121;52.404;5.318;2023-03-23T10:34:44;10.85;;;1.90;;
78778;SDS011;68121;52.404;5.318;2023-03-23T10:39:55;12.68;;;2.42;;
78778;SDS011;68121;52.404;5.318;2023-03-23T10:44:55;10.15;;;2.15;;
78778;SDS011;68121;52.404;5.318;2023-03-23T10:47:22;10.57;;;1.73;;
78778;SDS011;68121;52.404;5.318;2023-03-23T10:54:50;6.88;;;1.40;;
78778;SDS011;68121;52.404;5.318;2023-03-23T10:57:27;4.78;;;1.40;;
78778;SDS011;68121;52.404;5.318;2023-03-23T10:59:59;7.47;;;1.30;;
78778;SDS011;68121;52.404;5.318;2023-03-23T11:02:31;7.60;;;1.23;;
78778;SDS011;68121;52.404;5.318;2023-03-23T11:04:59;6.78;;;1.23;;
78778;SDS011;68121;52.404;5.318;2023-03-23T11:07:29;8.45;;;1.90;;
78778;SDS011;68121;52.404;5.318;2023-03-23T11:10:03;8.88;;;1.85;;
78778;SDS011;68121;52.404;5.318;2023-03-23T11:12:43;10.77;;;1.52;;
78778;SDS011;68121;52.404;5.318;2023-03-23T11:15:26;10.68;;;2.33;;
78778;SDS011;68121;52.404;5.318;2023-03-23T11:17:55;6.25;;;1.80;;
78778;SDS011;68121;52.404;5.318;2023-03-23T11:20:27;15.18;;;2.25;;
78778;SDS011;68121;52.404;5.318;2023-03-23T11:22:56;7.50;;;1.80;;
78778;SDS011;68121;52.404;5.318;2023-03-23T11:25:22;11.07;;;1.92;;
78778;SDS011;68121;52.404;5.318;2023-03-23T11:27:49;11.48;;;2.17;;
78778;SDS011;68121;52.404;5.318;2023-03-23T11:30:21;5.63;;;1.52;;
78778;SDS011;68121;52.404;5.318;2023-03-23T11:32:53;6.78;;;1.63;;
78778;SDS011;68121;52.404;5.318;2023-03-23T11:35:25;9.82;;;1.65;;
78778;SDS011;68121;52.404;5.318;2023-03-23T11:37:53;9.07;;;1.38;;
78778;SDS011;68121;52.404;5.318;2023-03-23T11:40:23;7.50;;;1.48;;
78778;SDS011;68121;52.404;5.318;2023-03-23T11:43:08;11.68;;;1.80;;
78778;SDS011;68121;52.404;5.318;2023-03-23T11:45:48;12.95;;;1.83;;
78778;SDS011;68121;52.404;5.318;2023-03-23T11:48:27;7.03;;;1.65;;
78778;SDS011;68121;52.404;5.318;2023-03-23T11:51:08;9.98;;;2.55;;
78778;SDS011;68121;52.404;5.318;2023-03-23T11:56:25;10.98;;;2.55;;
78778;SDS011;68121;52.404;5.318;2023-03-23T11:58:58;11.02;;;1.63;;
78778;SDS011;68121;52.404;5.318;2023-03-23T12:01:30;12.48;;;2.03;;
78778;SDS011;68121;52.404;5.318;2023-03-23T12:07:21;8.25;;;1.50;;
78778;SDS011;68121;52.404;5.318;2023-03-23T12:15:33;10.98;;;1.80;;
78778;SDS011;68121;52.404;5.318;2023-03-23T12:26:17;8.82;;;1.80;;
78778;SDS011;68121;52.404;5.318;2023-03-23T12:29:19;12.18;;;2.25;;
78778;SDS011;68121;52.404;5.318;2023-03-23T12:32:31;10.57;;;2.13;;
78778;SDS011;68121;52.404;5.318;2023-03-23T12:38:15;10.07;;;2.25;;
78778;SDS011;68121;52.404;5.318;2023-03-23T12:41:11;8.32;;;1.30;;
78778;SDS011;68121;52.404;5.318;2023-03-23T12:43:52;10.07;;;1.80;;
78778;SDS011;68121;52.404;5.318;2023-03-23T12:46:29;9.20;;;2.05;;
78778;SDS011;68121;52.404;5.318;2023-03-23T12:49:20;7.70;;;1.65;;
78778;SDS011;68121;52.404;5.318;2023-03-23T12:54:50;7.75;;;1.63;;
78778;SDS011;68121;52.404;5.318;2023-03-23T12:57:40;7.78;;;1.70;;
78778;SDS011;68121;52.404;5.318;2023-03-23T13:00:25;8.98;;;1.63;;
78778;SDS011;68121;52.404;5.318;2023-03-23T13:02:58;7.78;;;1.45;;
78778;SDS011;68121;52.404;5.318;2023-03-23T13:05:44;7.63;;;1.70;;
78778;SDS011;68121;52.404;5.318;2023-03-23T13:11:46;10.82;;;2.08;;
78778;SDS011;68121;52.404;5.318;2023-03-23T13:23:28;4.97;;;1.40;;
78778;SDS011;68121;52.404;5.318;2023-03-23T13:26:20;7.80;;;1.90;;
78778;SDS011;68121;52.404;5.318;2023-03-23T13:32:20;5.65;;;1.38;;
78778;SDS011;68121;52.404;5.318;2023-03-23T13:35:18;6.70;;;1.20;;
78778;SDS011;68121;52.404;5.318;2023-03-23T13:38:15;11.77;;;1.85;;
78778;SDS011;68121;52.404;5.318;2023-03-23T13:41:11;8.95;;;1.50;;
78778;SDS011;68121;52.404;5.318;2023-03-23T13:43:45;14.30;;;1.95;;
78778;SDS011;68121;52.404;5.318;2023-03-23T13:46:40;5.68;;;1.48;;
78778;SDS011;68121;52.404;5.318;2023-03-23T13:49:21;7.85;;;1.73;;
78778;SDS011;68121;52.404;5.318;2023-03-23T13:55:20;3.58;;;1.23;;
78778;SDS011;68121;52.404;5.318;2023-03-23T14:05:40;8.68;;;1.83;;
78778;SDS011;68121;52.404;5.318;2023-03-23T14:10:58;8.48;;;1.38;;
78778;SDS011;68121;52.404;5.318;2023-03-23T14:13:39;6.82;;;3.05;;
78778;SDS011;68121;52.404;5.318;2023-03-23T14:16:14;11.07;;;1.95;;
78778;SDS011;68121;52.404;5.318;2023-03-23T14:21:35;9.57;;;1.50;;
78778;SDS011;68121;52.404;5.318;2023-03-23T14:24:20;3.45;;;1.17;;
78778;SDS011;68121;52.404;5.318;2023-03-23T14:26:48;11.18;;;1.65;;
78778;SDS011;68121;52.404;5.318;2023-03-23T14:29:17;8.38;;;1.70;;
78778;SDS011;68121;52.404;5.318;2023-03-23T14:31:47;8.57;;;1.50;;
78778;SDS011;68121;52.404;5.318;2023-03-23T14:34:21;8.35;;;1.58;;
78778;SDS011;68121;52.404;5.318;2023-03-23T14:36:49;10.38;;;1.80;;
78778;SDS011;68121;52.404;5.318;2023-03-23T14:41:41;8.40;;;1.35;;
78778;SDS011;68121;52.404;5.318;2023-03-23T14:44:10;8.48;;;1.83;;
78778;SDS011;68121;52.404;5.318;2023-03-23T14:46:41;7.85;;;1.98;;
78778;SDS011;68121;52.404;5.318;2023-03-23T14:49:16;12.90;;;1.90;;
78778;SDS011;68121;52.404;5.318;2023-03-23T14:51:47;13.48;;;2.55;;
78778;SDS011;68121;52.404;5.318;2023-03-23T14:54:22;10.13;;;2.85;;
78778;SDS011;68121;52.404;5.318;2023-03-23T14:56:49;6.97;;;1.70;;
78778;SDS011;68121;52.404;5.318;2023-03-23T14:59:16;6.10;;;1.40;;
78778;SDS011;68121;52.404;5.318;2023-03-23T15:01:42;13.00;;;1.70;;
78778;SDS011;68121;52.404;5.318;2023-03-23T15:04:29;9.05;;;1.55;;
78778;SDS011;68121;52.404;5.318;2023-03-23T15:06:55;8.95;;;2.42;;
78778;SDS011;68121;52.404;5.318;2023-03-23T15:09:26;11.68;;;1.60;;
78778;SDS011;68121;52.404;5.318;2023-03-23T15:11:59;8.15;;;1.35;;
78778;SDS011;68121;52.404;5.318;2023-03-23T15:14:51;7.18;;;1.38;;
78778;SDS011;68121;52.404;5.318;2023-03-23T15:17:22;10.35;;;1.58;;
78778;SDS011;68121;52.404;5.318;2023-03-23T15:19:50;8.27;;;1.60;;
78778;SDS011;68121;52.404;5.318;2023-03-23T15:24:46;8.30;;;1.50;;
78778;SDS011;68121;52.404;5.318;2023-03-23T15:27:15;9.15;;;1.65;;
78778;SDS011;68121;52.404;5.318;2023-03-23T15:29:52;6.70;;;1.30;;
78778;SDS011;68121;52.404;5.318;2023-03-23T15:34:56;11.68;;;1.73;;
78778;SDS011;68121;52.404;5.318;2023-03-23T15:37:29;7.20;;;1.67;;
78778;SDS011;68121;52.404;5.318;2023-03-23T15:39:57;6.63;;;1.45;;
78778;SDS011;68121;52.404;5.318;2023-03-23T15:42:25;9.95;;;1.98;;
78778;SDS011;68121;52.404;5.318;2023-03-23T15:44:56;9.98;;;1.42;;
78778;SDS011;68121;52.404;5.318;2023-03-23T15:47:57;7.90;;;1.92;;
78778;SDS011;68121;52.404;5.318;2023-03-23T15:52:56;5.85;;;1.80;;
78778;SDS011;68121;52.404;5.318;2023-03-23T15:57:53;11.27;;;1.75;;
78778;SDS011;68121;52.404;5.318;2023-03-23T16:00:22;12.85;;;2.35;;
78778;SDS011;68121;52.404;5.318;2023-03-23T16:02:57;8.27;;;1.77;;
78778;SDS011;68121;52.404;5.318;2023-03-23T16:05:26;9.35;;;1.85;;
78778;SDS011;68121;52.404;5.318;2023-03-23T16:07:52;8.95;;;1.70;;
78778;SDS011;68121;52.404;5.318;2023-03-23T16:10:20;8.80;;;2.00;;
78778;SDS011;68121;52.404;5.318;2023-03-23T16:12:48;9.95;;;2.22;;
78778;SDS011;68121;52.404;5.318;2023-03-23T16:15:14;8.75;;;1.50;;
78778;SDS011;68121;52.404;5.318;2023-03-23T16:17:41;7.38;;;1.60;;
78778;SDS011;68121;52.404;5.318;2023-03-23T16:20:15;7.55;;;1.88;;
78778;SDS011;68121;52.404;5.318;2023-03-23T16:22:44;11.80;;;2.78;;
78778;SDS011;68121;52.404;5.318;2023-03-23T16:25:11;8.45;;;1.83;;
78778;SDS011;68121;52.404;5.318;2023-03-23T16:27:38;10.23;;;1.65;;
78778;SDS011;68121;52.404;5.318;2023-03-23T16:30:12;7.95;;;1.80;;
78778;SDS011;68121;52.404;5.318;2023-03-23T16:32:40;9.00;;;1.90;;
78778;SDS011;68121;52.404;5.318;2023-03-23T16:35:07;9.15;;;1.65;;
78778;SDS011;68121;52.404;5.318;2023-03-23T16:37:33;8.93;;;2.22;;
78778;SDS011;68121;52.404;5.318;2023-03-23T16:40:00;8.63;;;1.70;;
78778;SDS011;68121;52.404;5.318;2023-03-23T16:42:26;6.88;;;1.60;;
78778;SDS011;68121;52.404;5.318;2023-03-23T16:44:52;12.23;;;2.05;;
78778;SDS011;68121;52.404;5.318;2023-03-23T16:47:19;13.90;;;1.63;;
78778;SDS011;68121;52.404;5.318;2023-03-23T16:49:50;6.88;;;1.33;;
78778;SDS011;68121;52.404;5.318;2023-03-23T16:52:17;8.05;;;1.85;;
78778;SDS011;68121;52.404;5.318;2023-03-23T16:54:43;6.18;;;1.38;;
78778;SDS011;68121;52.404;5.318;2023-03-23T16:57:09;10.57;;;1.70;;
78778;SDS011;68121;52.404;5.318;2023-03-23T16:59:35;7.68;;;1.45;;